Latest Weather Observations for Frankston

IDV60801

Issued at 9:32 pm EST Wednesday 24 May 2017 (issued every 30 minutes, with the page automatically refreshed every 10 minutes)

About weather observations | Map of weather stations | Latest weather observations for VIC | Other Formats
Station Details ID: 086371 Name: FRANKSTON AWS Lat: -38.15 Lon: 145.12 Height: 6.0 m
Data from the previous 72 hours. | See also: Recent months at Frankston
Date/Time
EST
Temp
°C
App
Temp
°C
Dew
Point
°C
Rel
Hum
%
Delta-T
°C
Wind Press
QNH
hPa
Press
MSL
hPa
Rain since
9am
mm
Dir  Spd
km/h
Gust
km/h
Spd
kts
Gust
kts
24/09:30pm 14.3 10.6 11.6 84 1.4 W 22 28 12 15 - - -
24/09:00pm 14.3 11.0 11.6 84 1.4 W 20 26 11 14 - - -
24/08:30pm 14.6 10.4 11.2 80 1.8 W 24 32 13 17 - - -
24/08:00pm 14.8 10.5 10.8 77 2.1 WNW 24 30 13 16 - - -
24/07:30pm 15.0 10.3 10.6 75 2.3 W 26 33 14 18 - - -
24/07:00pm 15.0 11.7 10.8 76 2.2 W 19 24 10 13 - - -
24/06:30pm 15.3 11.8 10.1 71 2.7 W 19 22 10 12 - - -
24/06:00pm 15.1 12.6 11.1 77 2.1 WNW 15 17 8 9 - - -
24/05:30pm 15.1 12.0 10.3 73 2.5 W 17 20 9 11 - - -
24/05:00pm 14.7 12.5 10.7 77 2.1 W 13 15 7 8 - - -
24/04:30pm 14.7 11.8 11.1 79 1.9 W 17 20 9 11 - - -
24/04:00pm 14.6 11.0 10.6 77 2.1 W 20 24 11 13 - - -
24/03:30pm 14.6 11.4 11.2 80 1.8 W 19 20 10 11 - - -
24/03:00pm 14.7 10.7 10.3 75 2.3 W 22 26 12 14 - - -
24/02:30pm 14.6 9.8 10.4 76 2.2 W 26 32 14 17 - - -
24/02:00pm 14.5 9.9 10.9 79 1.9 W 26 32 14 17 - - -
24/01:30pm 14.7 10.5 11.1 79 1.9 WNW 24 28 13 15 - - -
24/01:00pm 14.7 9.6 10.5 76 2.2 WNW 28 35 15 19 - - -
24/12:30pm 14.3 10.2 11.5 83 1.5 WNW 24 30 13 16 - - -
24/12:00pm 14.1 9.6 11.3 83 1.5 WNW 26 32 14 17 - - -
24/11:30am 14.0 9.0 11.0 82 1.6 W 28 33 15 18 - - -
24/11:00am 13.8 8.8 11.1 84 1.4 WNW 28 33 15 18 - - -
24/10:30am 13.9 9.1 11.8 87 1.1 WNW 28 35 15 19 - - -
24/10:00am 13.8 9.0 11.5 86 1.2 WNW 28 33 15 18 - - -
24/09:30am 13.8 9.0 11.5 86 1.2 WNW 28 33 15 18 - - -
24/09:00am 13.8 8.9 11.3 85 1.3 WNW 28 33 15 18 - - -
24/08:30am 13.7 9.1 11.0 84 1.4 WNW 26 33 14 18 - - -
24/08:00am 13.9 8.9 11.1 83 1.5 WNW 28 37 15 20 - - -
24/07:30am 13.8 8.8 11.0 83 1.5 WNW 28 35 15 19 - - -
24/07:00am 13.9 8.9 11.1 83 1.5 WNW 28 35 15 19 - - -
24/06:30am 14.1 9.8 10.9 81 1.7 WNW 24 30 13 16 - - -
24/06:00am 14.4 10.5 10.8 79 1.9 NW 22 30 12 16 - - -
24/05:30am 14.6 10.8 11.0 79 1.9 WNW 22 28 12 15 - - -
24/05:00am 14.7 10.8 10.9 78 2.0 WNW 22 30 12 16 - - -
24/04:30am 14.8 11.4 11.4 80 1.8 NW 20 24 11 13 - - -
24/04:00am 15.1 12.1 11.9 81 1.7 NW 19 24 10 13 - - -
24/03:30am 15.2 12.1 12.3 83 1.6 NW 20 24 11 13 - - -
24/03:00am 15.2 12.6 13.2 88 1.1 NNW 19 24 10 13 - - -
24/02:30am 15.2 13.1 13.6 90 0.9 NNW 17 20 9 11 - - -
24/02:00am 15.0 12.5 13.5 91 0.8 N 19 22 10 12 - - -
24/01:30am 15.2 13.1 13.6 90 0.9 N 17 24 9 13 - - -
24/01:00am 15.0 12.9 13.5 91 0.8 N 17 22 9 12 - - -
24/12:30am 15.1 13.0 13.6 91 0.8 N 17 20 9 11 - - -
24/12:00am 15.3 13.2 13.7 90 0.9 N 17 20 9 11 - - -
 
Date/Time
EST
Temp
°C
App
Temp
°C
Dew
Point
°C
Rel
Hum
%
Delta-T
°C
Wind Press
QNH
hPa
Press
MSL
hPa
Rain since
9am
mm
Dir  Spd
km/h
Gust
km/h
Spd
kts
Gust
kts
23/11:30pm 15.6 13.7 14.1 91 0.8 N 17 20 9 11 - - -
23/11:00pm 15.4 13.0 13.9 91 0.8 N 19 22 10 12 - - -
23/10:30pm 15.4 13.4 13.8 90 0.9 NNW 17 22 9 12 - - -
23/10:00pm 15.4 14.2 13.9 91 0.8 NNW 13 17 7 9 - - -
23/09:30pm 15.5 14.6 13.7 89 1.0 N 11 15 6 8 - - -
23/09:00pm 15.4 15.2 13.6 89 1.0 N 7 9 4 5 - - -
23/08:30pm 15.6 14.6 13.4 87 1.2 N 11 13 6 7 - - -
23/08:00pm 15.7 14.7 13.4 86 1.3 N 11 13 6 7 - - -
23/07:30pm 15.7 15.0 13.2 85 1.4 NNE 9 13 5 7 - - -
23/07:00pm 16.3 14.0 13.0 81 1.8 N 17 20 9 11 - - -
23/06:30pm 16.4 13.8 13.3 82 1.7 N 19 24 10 13 - - -
23/06:00pm 16.8 14.3 13.5 81 1.9 N 19 22 10 12 - - -
23/05:30pm 16.8 14.7 13.5 81 1.9 N 17 20 9 11 - - -
23/05:00pm 16.8 15.1 13.7 82 1.8 N 15 20 8 11 - - -
23/04:30pm 17.2 15.0 13.3 78 2.2 N 17 22 9 12 - - -
23/04:00pm 17.2 15.4 13.3 78 2.2 N 15 20 8 11 - - -
23/03:30pm 17.2 16.5 13.3 78 2.2 N 9 13 5 7 - - -
23/03:00pm 17.2 14.9 13.1 77 2.3 N 17 19 9 10 - - -
23/02:30pm 16.9 15.8 13.0 78 2.2 N 11 15 6 8 - - -
23/02:00pm 16.5 15.9 13.4 82 1.7 N 9 11 5 6 - - -
23/01:30pm 16.1 16.6 14.1 88 1.1 NNW 4 6 2 3 - - -
23/01:00pm 15.8 15.6 13.6 87 1.2 NW 7 9 4 5 - - -
23/12:30pm 15.8 15.5 13.3 85 1.4 W 7 9 4 5 - - -
23/12:00pm 15.8 15.6 12.9 83 1.6 NW 6 7 3 4 - - -
23/11:30am 16.2 14.6 12.7 80 1.9 N 13 17 7 9 - - -
23/11:00am 16.4 13.9 12.4 77 2.2 NNE 17 24 9 13 - - -
23/10:30am 16.5 13.4 12.1 75 2.4 N 20 26 11 14 - - -
23/10:00am 16.2 14.7 11.8 75 2.4 N 11 19 6 10 - - -
23/09:30am 15.7 14.3 12.1 79 2.0 N 11 13 6 7 - - -
23/09:00am 15.8 13.1 11.8 77 2.2 N 17 20 9 11 - - -
23/08:30am 15.7 12.9 11.3 75 2.4 NNE 17 22 9 12 - - -
23/08:00am 15.9 12.7 11.9 77 2.2 N 20 24 11 13 - - -
23/07:30am 15.6 13.1 12.2 80 1.9 N 17 22 9 12 - - -
23/07:00am 15.8 12.9 12.4 80 1.9 NNW 19 24 10 13 - - -
23/06:30am 16.5 13.2 11.6 73 2.7 NW 20 24 11 13 - - -
23/06:00am 16.4 14.3 11.3 72 2.7 N 13 15 7 8 - - -
23/05:30am 16.5 15.0 10.4 67 3.2 N 9 13 5 7 - - -
23/05:00am 16.5 15.2 9.2 62 3.8 NE 6 13 3 7 - - -
23/04:30am 16.8 14.9 9.2 61 3.9 NE 9 15 5 8 - - -
23/04:00am 16.8 15.4 9.5 62 3.8 NE 7 13 4 7 - - -
23/03:30am 16.2 15.1 9.8 66 3.3 ENE 6 9 3 5 - - -
23/03:00am 15.5 15.1 11.1 75 2.3 E 4 6 2 3 - - -
23/02:30am 16.0 16.0 12.4 79 2.0 N 4 6 2 3 - - -
23/02:00am 16.2 17.0 12.4 78 2.1 CALM 0 0 0 0 - - -
23/01:30am 16.2 16.3 11.4 73 2.6 ESE 2 6 1 3 - - -
23/01:00am 16.4 17.0 11.8 74 2.5 CALM 0 0 0 0 - - -
23/12:30am 16.7 16.4 11.6 72 2.8 WNW 4 6 2 3 - - -
23/12:00am 17.0 16.3 10.1 64 3.6 NE 4 6 2 3 - - -
 
Date/Time
EST
Temp
°C
App
Temp
°C
Dew
Point
°C
Rel
Hum
%
Delta-T
°C
Wind Press
QNH
hPa
Press
MSL
hPa
Rain since
9am
mm
Dir  Spd
km/h
Gust
km/h
Spd
kts
Gust
kts
22/11:30pm 16.4 16.6 10.7 69 3.0 CALM 0 4 0 2 - - -
22/11:00pm 16.4 16.2 10.5 68 3.1 ENE 2 6 1 3 - - -
22/10:30pm 16.8 16.0 10.9 68 3.2 NE 6 7 3 4 - - -
22/10:00pm 16.8 16.3 10.9 68 3.2 NNE 4 7 2 4 - - -
22/09:30pm 17.0 15.7 11.1 68 3.2 NE 9 15 5 8 - - -
22/09:00pm 16.8 15.5 11.1 69 3.1 NE 9 19 5 10 - - -
22/08:30pm 16.9 15.6 11.2 69 3.1 NE 9 15 5 8 - - -
22/08:00pm 16.7 16.0 11.4 71 2.9 ENE 6 11 3 6 - - -
22/07:30pm 17.0 16.4 11.7 71 2.9 NNE 6 9 3 5 - - -
22/07:00pm 17.3 16.2 12.0 71 2.9 NNE 9 13 5 7 - - -
22/06:30pm 17.7 17.0 11.9 69 3.2 NE 7 9 4 5 - - -
22/06:00pm 18.0 16.5 11.8 67 3.4 NE 11 19 6 10 - - -
22/05:30pm 17.9 16.7 11.5 66 3.5 NNE 9 15 5 8 - - -
22/05:00pm 18.4 16.5 11.7 65 3.7 NNE 13 19 7 10 - - -
22/04:30pm 18.9 15.8 12.2 65 3.7 NNE 20 28 11 15 - - -
22/04:00pm 18.5 15.5 12.7 69 3.2 NNE 20 24 11 13 - - -
22/03:30pm 18.2 15.5 12.9 71 3.0 N 19 20 10 11 - - -
22/03:00pm 18.2 15.9 13.1 72 2.9 N 17 22 9 12 - - -
22/02:30pm 18.3 16.0 13.0 71 3.0 N 17 22 9 12 - - -
22/02:00pm 18.2 16.4 13.3 73 2.8 N 15 19 8 10 - - -
22/01:30pm 17.9 17.0 13.6 76 2.4 N 11 15 6 8 - - -
22/01:00pm 17.9 15.7 13.4 75 2.5 N 17 22 9 12 - - -
22/12:30pm 17.3 15.2 13.6 79 2.1 N 17 20 9 11 - - -
22/12:00pm 17.0 15.6 13.5 80 2.0 N 13 17 7 9 - - -
22/11:30am 16.8 14.6 13.3 80 2.0 N 17 22 9 12 - - -
22/11:00am 16.8 14.5 13.1 79 2.1 NNE 17 22 9 12 - - -
22/10:30am 16.8 14.9 12.9 78 2.2 NNE 15 19 8 10 - - -
22/10:00am 16.3 14.7 12.8 80 1.9 NNE 13 20 7 11 - - -
22/09:30am 15.8 15.3 12.5 81 1.8 NNE 7 11 4 6 - - -
22/09:00am 15.0 14.5 12.1 83 1.6 ENE 6 9 3 5 - - -
22/08:30am 13.9 13.4 11.9 88 1.1 ESE 6 9 3 5 - - -
22/08:00am 13.1 12.7 11.0 87 1.1 ESE 4 6 2 3 - - -
22/07:30am 13.1 12.7 11.2 88 1.0 E 4 6 2 3 - - -
22/07:00am 13.1 12.7 11.2 88 1.0 E 4 6 2 3 - - -
22/06:30am 13.4 13.1 11.6 89 1.0 E 4 4 2 2 - - -
22/06:00am 13.1 12.8 11.5 90 0.8 E 4 4 2 2 - - -
22/05:30am 13.3 13.0 11.5 89 1.0 E 4 6 2 3 - - -
22/05:00am 13.4 12.8 11.6 89 1.0 ENE 6 9 3 5 - - -
22/04:30am 13.4 12.9 12.0 91 0.8 ENE 6 7 3 4 - - -
22/04:00am 12.6 12.2 11.2 91 0.7 ESE 4 6 2 3 - - -
22/03:30am 13.3 13.1 11.7 90 0.9 E 4 6 2 3 - - -
22/03:00am 13.4 13.2 11.8 90 0.9 ENE 4 7 2 4 - - -
22/02:30am 13.5 13.3 11.7 89 1.0 ENE 4 6 2 3 - - -
22/02:00am 13.6 13.4 11.8 89 1.0 ENE 4 6 2 3 - - -
22/01:30am 13.7 13.5 11.9 89 1.0 ENE 4 6 2 3 - - -
22/01:00am 13.8 13.7 12.0 89 1.0 E 4 6 2 3 - - -
22/12:30am 13.7 13.6 12.1 90 0.9 ESE 4 6 2 3 - - -
22/12:00am 13.8 13.7 12.0 89 1.0 ESE 4 4 2 2 - - -
 
Date/Time
EST
Temp
°C
App
Temp
°C
Dew
Point
°C
Rel
Hum
%
Delta-T
°C
Wind Press
QNH
hPa
Press
MSL
hPa
Rain since
9am
mm
Dir  Spd
km/h
Gust
km/h
Spd
kts
Gust
kts
21/11:30pm 14.5 14.5 12.5 88 1.1 E 4 4 2 2 - - -
21/11:00pm 14.4 14.4 12.4 88 1.1 E 4 6 2 3 - - -
21/10:30pm 14.1 14.1 12.5 90 0.9 ESE 4 6 2 3 - - -
21/10:00pm 14.6 14.7 12.6 88 1.1 ESE 4 4 2 2 - - -

Other Formats:

Comma delimited format used in spreadsheet applications
http://www.bom.gov.au/fwo/IDV60801/IDV60801.94871.axf

JavaScript Object Notation format (JSON) in row-major order
http://www.bom.gov.au/fwo/IDV60801/IDV60801.94871.json